Time;durP1;ratioP1;P1;durP2;ratioP2;P2;SDS_P1;SDS_P2;PMS_P1;PMS_P2;Temp;Humidity;BMP_temperature;BMP_pressure;BME280_temperature;BME280_humidity;BME280_pressure;Samples;Min_cycle;Max_cycle;Signal;HPM_P1;HPM_P2
2022/04/02 00:01:09;;;;;;;8.77;4.85;;;;;;;0.94;100.00;101145.34;4998992;28;20030;-78
2022/04/02 00:03:35;;;;;;;13.63;5.15;;;;;;;0.90;100.00;101146.38;4953695;28;20050;-78
2022/04/02 00:06:01;;;;;;;8.82;4.50;;;;;;;0.83;100.00;101148.38;4967566;28;20034;-78
2022/04/02 00:08:27;;;;;;;7.60;3.85;;;;;;;0.89;100.00;101140.09;4959322;28;20026;-78
2022/04/02 00:10:52;;;;;;;12.40;4.43;;;;;;;0.87;100.00;101157.25;4974186;28;20038;-78
2022/04/02 00:13:18;;;;;;;9.27;4.78;;;;;;;0.69;100.00;101139.91;4956804;28;20039;-79
2022/04/02 00:15:44;;;;;;;9.57;4.88;;;;;;;0.77;100.00;101145.94;4971639;28;20081;-78
2022/04/02 00:18:10;;;;;;;10.57;5.47;;;;;;;0.73;100.00;101150.50;4974623;28;20039;-78
2022/04/02 00:20:36;;;;;;;21.08;5.60;;;;;;;0.66;100.00;101143.59;4975985;28;20030;-77
2022/04/02 00:25:47;;;;;;;12.77;4.97;;;;;;;0.82;100.00;101164.59;4988104;28;20031;-77
2022/04/02 00:28:12;;;;;;;11.15;4.55;;;;;;;0.87;100.00;101168.94;4970851;28;20110;-77
2022/04/02 00:30:40;;;;;;;8.10;4.43;;;;;;;0.91;100.00;101162.47;4987886;28;20050;-77
2022/04/02 00:33:06;;;;;;;10.18;4.70;;;;;;;0.90;100.00;101163.44;4969700;28;20057;-78
2022/04/02 00:35:36;;;;;;;9.13;4.25;;;;;;;0.78;100.00;101130.63;4957404;28;20054;-78
2022/04/02 00:38:02;;;;;;;24.38;4.85;;;;;;;0.97;100.00;101168.59;4975813;28;20030;-78
2022/04/02 00:40:28;;;;;;;10.85;4.72;;;;;;;0.78;100.00;101144.97;4970687;28;20052;-78
2022/04/02 00:42:57;;;;;;;9.77;3.47;;;;;;;0.91;100.00;101140.91;4976352;28;20063;-78
2022/04/02 00:45:22;;;;;;;8.77;4.00;;;;;;;0.80;100.00;101134.16;4968694;28;20224;-79
2022/04/02 00:47:49;;;;;;;8.00;4.28;;;;;;;0.94;100.00;101160.66;4965438;28;20051;-79
2022/04/02 00:50:16;;;;;;;11.55;4.03;;;;;;;0.95;100.00;101143.50;4998825;28;20088;-79
2022/04/02 00:52:43;;;;;;;8.63;4.13;;;;;;;0.93;100.00;101158.88;4960320;28;20034;-79
2022/04/02 00:55:09;;;;;;;8.15;4.35;;;;;;;0.90;100.00;101163.44;4980355;28;20391;-78
2022/04/02 00:57:36;;;;;;;6.60;3.85;;;;;;;1.09;100.00;101168.19;4961232;28;20074;-78
2022/04/02 01:00:03;;;;;;;11.55;4.30;;;;;;;0.85;100.00;101145.66;4970243;28;20030;-78
2022/04/02 01:02:29;;;;;;;6.57;4.43;;;;;;;0.94;100.00;101155.25;4976072;28;20034;-77
2022/04/02 01:04:55;;;;;;;7.13;4.22;;;;;;;0.90;100.00;101131.09;4989504;28;20490;-78
2022/04/02 01:07:22;;;;;;;7.88;4.13;;;;;;;0.97;100.00;101145.25;4970119;28;20604;-77
2022/04/02 01:09:47;;;;;;;11.38;4.30;;;;;;;0.94;100.00;101150.72;4961851;28;20041;-78
2022/04/02 01:12:13;;;;;;;8.23;3.22;;;;;;;0.95;100.00;101149.78;4953038;28;20038;-77
2022/04/02 01:14:38;;;;;;;9.23;3.88;;;;;;;0.99;100.00;101158.66;4974487;28;20038;-79
2022/04/02 01:17:05;;;;;;;4.75;3.10;;;;;;;1.04;100.00;101144.06;4957803;28;20032;-78
2022/04/02 01:19:32;;;;;;;6.28;3.30;;;;;;;0.90;100.00;101141.88;4976675;28;20034;-78
2022/04/02 01:21:59;;;;;;;8.27;2.45;;;;;;;1.06;100.00;101154.81;4954713;28;20031;-78
2022/04/02 01:24:25;;;;;;;8.15;3.13;;;;;;;1.11;100.00;101155.53;4972687;28;20056;-78
2022/04/02 01:26:51;;;;;;;12.05;3.42;;;;;;;0.92;100.00;101131.03;4957718;28;20027;-78
2022/04/02 01:29:16;;;;;;;9.38;3.15;;;;;;;0.99;100.00;101154.16;4966041;28;20129;-78
2022/04/02 01:31:45;;;;;;;7.22;2.45;;;;;;;0.91;100.00;101119.34;4963084;28;20030;-78
2022/04/02 01:34:10;;;;;;;3.35;2.42;;;;;;;1.02;100.00;101151.34;4966409;28;20112;-78
2022/04/02 01:36:38;;;;;;;5.00;1.88;;;;;;;1.17;100.00;101154.44;4959202;28;20090;-78
2022/04/02 01:39:03;;;;;;;4.68;2.38;;;;;;;1.10;100.00;101160.06;4969755;28;20043;-78
2022/04/02 01:41:32;;;;;;;6.00;2.75;;;;;;;1.11;100.00;101150.13;4951992;28;20126;-78
2022/04/02 01:44:00;;;;;;;2.92;2.10;;;;;;;1.15;100.00;101162.59;4975044;28;20491;-79
2022/04/02 01:46:26;;;;;;;2.55;1.60;;;;;;;1.15;100.00;101167.09;4964308;28;20026;-78
2022/04/02 01:48:51;;;;;;;2.58;1.50;;;;;;;0.97;100.00;101153.31;4954369;28;20034;-78
2022/04/02 01:51:17;;;;;;;4.10;2.20;;;;;;;1.17;100.00;101166.09;4954678;29;20027;-78
2022/04/02 01:53:42;;;;;;;3.20;1.50;;;;;;;1.23;100.00;101173.09;4962993;28;20089;-78
2022/04/02 01:56:09;;;;;;;3.67;1.50;;;;;;;1.18;100.00;101164.28;4962579;28;20043;-78
2022/04/02 01:58:35;;;;;;;2.40;1.50;;;;;;;0.89;100.00;101140.09;4967281;28;20038;-78
2022/04/02 02:01:00;;;;;;;1.80;1.30;;;;;;;1.01;100.00;101140.63;4974556;28;20032;-78
2022/04/02 02:03:26;;;;;;;5.10;1.73;;;;;;;0.90;100.00;101143.66;4970305;28;20113;-78
2022/04/02 02:05:53;;;;;;;3.17;1.30;;;;;;;0.98;100.00;101173.94;4978531;28;20059;-79
2022/04/02 02:08:19;;;;;;;5.25;2.13;;;;;;;0.95;100.00;101168.66;4960654;28;20050;-78
2022/04/02 02:10:47;;;;;;;4.28;1.92;;;;;;;0.99;100.00;101169.44;4970676;28;20031;-78
2022/04/02 02:13:13;;;;;;;4.22;2.00;;;;;;;0.97;100.00;101168.59;4971032;28;20034;-79
2022/04/02 02:15:38;;;;;;;3.75;2.05;;;;;;;0.84;100.00;101154.69;4960988;28;20022;-79
2022/04/02 02:18:04;;;;;;;9.05;1.70;;;;;;;0.90;100.00;101160.75;4954877;28;20130;-79
2022/04/02 02:20:30;;;;;;;3.15;1.73;;;;;;;0.89;100.00;101172.44;4973234;28;20027;-78
2022/04/02 02:22:55;;;;;;;5.57;1.90;;;;;;;0.81;100.00;101165.56;4964826;28;20163;-79
2022/04/02 02:25:21;;;;;;;3.47;1.55;;;;;;;0.97;100.00;101174.91;4972809;28;20035;-78
2022/04/02 02:27:47;;;;;;;5.53;2.03;;;;;;;0.87;100.00;101166.25;4970255;28;20059;-79
2022/04/02 02:30:14;;;;;;;5.22;2.20;;;;;;;0.94;100.00;101169.59;4967598;28;20051;-79
2022/04/02 02:32:40;;;;;;;6.65;2.45;;;;;;;0.82;100.00;101160.13;4954752;28;20030;-79
2022/04/02 02:38:08;;;;;;;5.65;2.03;;;;;;;1.04;100.00;101184.53;4961563;28;20043;-78
2022/04/02 02:40:35;;;;;;;5.82;2.03;;;;;;;0.95;100.00;101182.13;4976703;28;20042;-78
2022/04/02 02:43:01;;;;;;;5.50;2.30;;;;;;;0.77;100.00;101156.72;4967983;28;20031;-77
2022/04/02 02:45:27;;;;;;;4.32;2.13;;;;;;;0.84;100.00;101171.72;4950555;28;20023;-77
2022/04/02 02:47:54;;;;;;;5.25;2.55;;;;;;;0.82;100.00;101164.59;4971146;28;20129;-77
2022/04/02 02:50:20;;;;;;;4.20;2.25;;;;;;;0.81;100.00;101161.03;4971240;28;20039;-77
2022/04/02 02:52:46;;;;;;;4.75;2.50;;;;;;;0.81;100.00;101157.47;4966029;28;20443;-77
2022/04/02 02:55:12;;;;;;;5.78;2.10;;;;;;;0.70;100.00;101133.56;4955387;28;20039;-77
2022/04/02 02:57:42;;;;;;;5.93;1.83;;;;;;;1.05;100.00;101172.81;4959230;29;20396;-77
2022/04/02 03:00:09;;;;;;;5.22;2.47;;;;;;;0.75;100.00;101147.78;4974606;28;20058;-77
2022/04/02 03:02:37;;;;;;;3.17;1.52;;;;;;;0.97;100.00;101147.03;4958325;28;20435;-77
2022/04/02 03:05:10;;;;;;;7.50;2.10;;;;;;;0.94;100.00;101171.44;4954614;28;20051;-77
2022/04/02 03:07:48;;;;;;;10.35;2.15;;;;;;;0.73;100.00;101144.25;4973745;28;20396;-77
2022/04/02 03:10:25;;;;;;;7.25;1.80;;;;;;;0.92;100.00;101166.09;4975789;28;20181;-78
2022/04/02 03:12:52;;;;;;;4.43;2.00;;;;;;;0.89;100.00;101169.75;4972510;28;20082;-77
2022/04/02 03:15:18;;;;;;;3.08;1.42;;;;;;;0.78;100.00;101153.06;4973077;28;20046;-78
2022/04/02 03:17:44;;;;;;;4.03;1.90;;;;;;;0.85;100.00;101170.81;4969536;28;20041;-78
2022/04/02 03:20:11;;;;;;;5.53;1.58;;;;;;;0.81;100.00;101144.88;4957411;28;20078;-78
2022/04/02 03:22:41;;;;;;;6.78;1.73;;;;;;;0.98;100.00;101173.06;4956830;28;20024;-78
2022/04/02 03:25:09;;;;;;;4.63;1.40;;;;;;;1.00;100.00;101173.88;4971064;28;20434;-77
2022/04/02 03:27:36;;;;;;;6.22;2.30;;;;;;;0.90;100.00;101159.84;4958462;28;20031;-77
2022/04/02 03:30:04;;;;;;;5.30;1.63;;;;;;;0.99;100.00;101155.97;4992412;28;20054;-77
2022/04/02 03:32:29;;;;;;;4.65;1.80;;;;;;;0.83;100.00;101152.91;4960704;28;20125;-77
2022/04/02 03:34:55;;;;;;;3.85;1.52;;;;;;;0.82;100.00;101153.81;4953277;28;20080;-77
2022/04/02 03:37:20;;;;;;;4.45;1.80;;;;;;;0.99;100.00;101173.03;4949031;28;20057;-77
2022/04/02 03:39:46;;;;;;;5.13;1.67;;;;;;;0.82;100.00;101164.59;4961670;28;20039;-77
2022/04/02 03:42:13;;;;;;;4.70;1.60;;;;;;;0.86;100.00;101168.97;4959740;28;20035;-77
2022/04/02 03:44:38;;;;;;;3.45;1.40;;;;;;;1.07;100.00;101170.94;4979929;28;20046;-77
2022/04/02 03:47:10;;;;;;;5.00;1.35;;;;;;;1.06;100.00;101174.56;4958193;28;20094;-77
2022/04/02 03:49:37;;;;;;;5.45;1.30;;;;;;;1.03;100.00;101184.56;4957539;28;20038;-77
2022/04/02 03:52:03;;;;;;;2.05;1.20;;;;;;;1.05;100.00;101190.78;4961317;28;20026;-77
2022/04/02 03:54:29;;;;;;;2.25;1.10;;;;;;;1.10;100.00;101169.97;4976586;28;20038;-77
2022/04/02 03:56:54;;;;;;;5.38;1.15;;;;;;;1.09;100.00;101177.16;4959217;28;20037;-77
2022/04/02 03:59:20;;;;;;;3.78;1.23;;;;;;;1.11;100.00;101190.56;4979461;28;20026;-77
2022/04/02 04:01:45;;;;;;;1.73;1.15;;;;;;;0.99;100.00;101166.75;4964632;28;20091;-77
2022/04/02 04:04:11;;;;;;;2.78;1.30;;;;;;;1.05;100.00;101175.50;4975576;28;20505;-77
2022/04/02 04:06:37;;;;;;;2.03;1.30;;;;;;;1.03;100.00;101181.88;4993647;28;20500;-77
2022/04/02 04:09:03;;;;;;;2.10;1.15;;;;;;;1.23;100.00;101197.34;4965185;28;20125;-77
2022/04/02 04:11:29;;;;;;;3.28;1.60;;;;;;;0.85;100.00;101149.25;4974071;28;20073;-77
2022/04/02 04:13:54;;;;;;;1.85;1.15;;;;;;;0.93;100.00;101180.44;4988550;28;20061;-77
2022/04/02 04:16:20;;;;;;;2.55;1.05;;;;;;;1.14;100.00;101181.50;4952043;28;20043;-78
2022/04/02 04:18:46;;;;;;;3.70;1.33;;;;;;;1.18;100.00;101197.53;4957173;28;20033;-77
2022/04/02 04:21:14;;;;;;;1.73;1.17;;;;;;;1.20;100.00;101200.19;4956225;28;20085;-77
2022/04/02 04:23:43;;;;;;;4.32;1.20;;;;;;;1.17;100.00;101198.47;4964398;28;20070;-77
2022/04/02 04:26:11;;;;;;;5.15;1.05;;;;;;;1.25;100.00;101198.22;4992440;28;20085;-77
2022/04/02 04:28:37;;;;;;;2.80;1.17;;;;;;;1.32;100.00;101209.66;4980017;28;20130;-77
2022/04/02 04:31:04;;;;;;;2.88;1.38;;;;;;;1.15;100.00;101183.25;4969027;28;20039;-77
2022/04/02 04:33:31;;;;;;;2.17;0.98;;;;;;;1.21;100.00;101204.63;4971866;28;20023;-77
2022/04/02 04:35:56;;;;;;;3.28;1.27;;;;;;;1.16;100.00;101206.59;4972508;28;20092;-77
2022/04/02 04:38:22;;;;;;;2.80;1.10;;;;;;;1.45;100.00;101213.69;4956230;28;20034;-77
2022/04/02 04:40:47;;;;;;;2.40;1.08;;;;;;;1.09;100.00;101184.38;4949399;28;20031;-76
2022/04/02 04:43:13;;;;;;;7.18;1.30;;;;;;;1.27;100.00;101213.38;4992644;28;20117;-77
2022/04/02 04:45:39;;;;;;;3.70;1.10;;;;;;;1.23;100.00;101210.84;4959096;28;20136;-77
2022/04/02 04:48:05;;;;;;;1.65;1.10;;;;;;;1.17;100.00;101213.78;4970878;28;20035;-77
2022/04/02 04:50:31;;;;;;;3.15;1.25;;;;;;;1.26;100.00;101225.13;4969933;28;20154;-77
2022/04/02 04:52:57;;;;;;;2.40;1.20;;;;;;;1.21;100.00;101221.69;4991097;28;20039;-77
2022/04/02 04:55:23;;;;;;;4.50;1.60;;;;;;;1.09;100.00;101214.03;4978065;28;20042;-78
2022/04/02 04:57:50;;;;;;;2.30;1.20;;;;;;;1.06;100.00;101239.25;4976377;28;20070;-75
2022/04/02 05:00:16;;;;;;;2.15;1.27;;;;;;;1.07;100.00;101207.81;4989567;28;20038;-76
2022/04/02 05:02:44;;;;;;;1.50;1.10;;;;;;;0.98;100.00;101224.28;4969570;28;20022;-76
2022/04/02 05:05:12;;;;;;;2.40;1.27;;;;;;;1.08;100.00;101236.53;4989590;28;20639;-75
2022/04/02 05:07:39;;;;;;;5.13;1.63;;;;;;;1.04;100.00;101234.88;4985195;28;20026;-76
2022/04/02 05:10:06;;;;;;;5.93;1.48;;;;;;;0.96;100.00;101242.34;4961978;28;20030;-75
2022/04/02 05:12:32;;;;;;;4.20;1.50;;;;;;;0.98;100.00;101235.06;4984556;28;20092;-76
2022/04/02 05:14:58;;;;;;;4.00;1.83;;;;;;;1.04;100.00;101241.13;4971271;28;20035;-76
2022/04/02 05:17:23;;;;;;;3.13;1.75;;;;;;;1.05;100.00;101248.31;4973403;28;20033;-75
2022/04/02 05:19:49;;;;;;;4.68;1.75;;;;;;;1.02;100.00;101247.53;4953641;28;20078;-75
2022/04/02 05:22:15;;;;;;;4.53;1.80;;;;;;;1.11;100.00;101252.59;4984348;28;20518;-76
2022/04/02 05:24:40;;;;;;;6.65;1.88;;;;;;;0.98;100.00;101268.28;4964190;28;20054;-75
2022/04/02 05:27:06;;;;;;;5.68;1.70;;;;;;;1.07;100.00;101259.03;4985243;28;20035;-75
2022/04/02 05:29:31;;;;;;;3.88;1.80;;;;;;;1.04;100.00;101264.53;4946958;28;20062;-75
2022/04/02 05:31:57;;;;;;;2.58;1.70;;;;;;;1.02;100.00;101256.50;4968108;28;20042;-76
2022/04/02 05:34:22;;;;;;;3.63;1.92;;;;;;;0.97;100.00;101266.56;4986795;28;20043;-75
2022/04/02 05:36:48;;;;;;;6.63;1.85;;;;;;;1.00;100.00;101268.25;4971094;28;20109;-77
2022/04/02 05:39:13;;;;;;;4.30;2.00;;;;;;;1.05;100.00;101275.28;4967915;28;20049;-75
2022/04/02 05:41:39;;;;;;;3.88;1.83;;;;;;;0.93;100.00;101274.78;4961671;28;20035;-76
2022/04/02 05:44:06;;;;;;;4.65;1.70;;;;;;;1.01;100.00;101270.91;4954682;28;20402;-76
2022/04/02 05:46:32;;;;;;;3.17;1.50;;;;;;;1.26;100.00;101294.34;4967229;28;20058;-76
2022/04/02 05:48:58;;;;;;;4.30;1.60;;;;;;;1.16;100.00;101288.38;4970104;28;20081;-76
2022/04/02 05:51:23;;;;;;;2.65;1.52;;;;;;;1.02;100.00;101287.97;4945447;28;20559;-75
2022/04/02 05:53:49;;;;;;;2.78;1.40;;;;;;;1.05;100.00;101280.66;4970780;28;20035;-75
2022/04/02 05:56:15;;;;;;;4.13;2.17;;;;;;;1.00;100.00;101287.13;4964319;28;20026;-75
2022/04/02 05:58:41;;;;;;;9.15;2.03;;;;;;;1.10;100.00;101300.25;4974588;28;20049;-75
2022/04/02 06:01:07;;;;;;;4.55;1.83;;;;;;;1.11;100.00;101298.44;4944601;28;20050;-75
2022/04/02 06:03:33;;;;;;;3.35;1.48;;;;;;;1.15;100.00;101305.50;4960335;28;20035;-75
2022/04/02 06:05:58;;;;;;;5.53;2.13;;;;;;;1.07;100.00;101304.88;4969413;28;20494;-76
2022/04/02 06:08:24;;;;;;;4.68;1.63;;;;;;;1.18;100.00;101312.59;4959706;28;20035;-74
2022/04/02 06:10:49;;;;;;;8.80;1.83;;;;;;;1.24;100.00;101317.81;4965670;28;20130;-75
2022/04/02 06:13:15;;;;;;;3.08;1.38;;;;;;;1.22;100.00;101311.59;4967871;28;20467;-76
2022/04/02 06:15:41;;;;;;;7.22;1.40;;;;;;;1.27;100.00;101317.72;4952533;29;20453;-77
2022/04/02 06:18:07;;;;;;;2.55;1.25;;;;;;;1.35;100.00;101309.38;4956516;28;20042;-75
2022/04/02 06:20:33;;;;;;;3.47;1.60;;;;;;;1.49;100.00;101312.47;4963746;28;20035;-74
2022/04/02 06:22:59;;;;;;;3.58;1.42;;;;;;;1.34;100.00;101319.25;4974442;28;20366;-75
2022/04/02 06:25:25;;;;;;;2.88;1.50;;;;;;;1.25;100.00;101316.88;4971559;28;20085;-75
2022/04/02 06:27:52;;;;;;;2.15;1.35;;;;;;;1.36;100.00;101335.38;4966978;28;20039;-77
2022/04/02 06:30:20;;;;;;;2.70;1.30;;;;;;;1.46;100.00;101340.44;4965111;28;20399;-76
2022/04/02 06:32:46;;;;;;;3.15;1.40;;;;;;;1.50;100.00;101334.94;4960412;28;20408;-77
2022/04/02 06:35:11;;;;;;;2.90;1.23;;;;;;;1.47;100.00;101346.72;4970374;28;20110;-76
2022/04/02 06:37:39;;;;;;;3.45;1.60;;;;;;;1.51;100.00;101356.47;4969469;28;20030;-75
2022/04/02 06:40:06;;;;;;;6.22;1.20;;;;;;;1.57;100.00;101358.94;4970517;28;20026;-75
2022/04/02 06:42:32;;;;;;;3.28;1.30;;;;;;;1.75;100.00;101361.97;4986149;28;20058;-77
2022/04/02 06:44:58;;;;;;;1.45;1.00;;;;;;;1.79;100.00;101361.81;4962083;28;20057;-76
2022/04/02 06:47:28;;;;;;;1.38;1.00;;;;;;;1.93;100.00;101364.03;4955816;28;20038;-76
2022/04/02 06:49:54;;;;;;;4.57;1.27;;;;;;;1.82;100.00;101363.50;4951469;28;20047;-76
2022/04/02 06:52:20;;;;;;;2.20;1.05;;;;;;;1.92;100.00;101375.78;4973338;28;20069;-75
2022/04/02 06:54:46;;;;;;;1.27;0.93;;;;;;;2.17;99.17;101380.31;4973166;28;20035;-75
2022/04/02 06:57:17;;;;;;;4.57;0.98;;;;;;;2.19;100.00;101379.31;4967145;28;20038;-75
2022/04/02 06:59:42;;;;;;;0.85;0.82;;;;;;;2.17;98.51;101380.31;4954160;28;20388;-74
2022/04/02 07:02:08;;;;;;;1.80;1.00;;;;;;;2.27;100.00;101380.88;4969304;28;20034;-74
2022/04/02 07:04:33;;;;;;;2.22;1.10;;;;;;;2.33;100.00;101388.75;4973179;28;20028;-76
2022/04/02 07:07:00;;;;;;;1.63;1.10;;;;;;;2.45;100.00;101390.13;4968974;28;20039;-75
2022/04/02 07:09:25;;;;;;;1.60;1.10;;;;;;;2.66;96.07;101393.88;4969002;28;20122;-76
2022/04/02 07:11:51;;;;;;;1.63;0.98;;;;;;;2.91;96.83;101402.78;4973178;28;20055;-76
2022/04/02 07:14:17;;;;;;;2.70;0.88;;;;;;;2.62;98.18;101398.47;4965534;28;20042;-74
2022/04/02 07:16:43;;;;;;;2.42;1.00;;;;;;;2.81;100.00;101397.81;4951115;28;20490;-74
2022/04/02 07:19:09;;;;;;;2.13;1.10;;;;;;;2.87;100.00;101408.38;4971495;28;20031;-75
2022/04/02 07:21:36;;;;;;;2.88;0.95;;;;;;;2.89;95.55;101403.81;4955964;29;20027;-74
2022/04/02 07:24:02;;;;;;;2.55;1.13;;;;;;;2.94;99.06;101416.19;4958813;29;20032;-76
2022/04/02 07:26:30;;;;;;;3.25;1.20;;;;;;;2.82;99.92;101416.69;4961537;28;20034;-75
2022/04/02 07:28:56;;;;;;;15.07;1.33;;;;;;;2.99;98.19;101398.94;4964008;28;20121;-75
2022/04/02 07:31:22;;;;;;;1.90;0.93;;;;;;;2.88;98.60;101400.19;4960801;28;20054;-76
2022/04/02 07:33:47;;;;;;;4.68;1.80;;;;;;;2.97;99.03;101404.38;4964287;28;20422;-75
2022/04/02 07:36:54;;;;;;;3.28;1.20;;;;;;;3.19;99.37;101433.31;4981320;28;20046;-74
2022/04/02 07:39:39;;;;;;;3.47;1.58;;;;;;;3.13;100.00;101416.38;4950572;28;20046;-75
2022/04/02 07:42:19;;;;;;;4.72;1.23;;;;;;;3.29;97.61;101435.56;4969055;28;20558;-74
2022/04/02 07:45:05;;;;;;;3.70;1.42;;;;;;;3.28;100.00;101419.41;4955135;28;20027;-74
2022/04/02 07:47:38;;;;;;;5.97;1.70;;;;;;;3.08;97.69;101412.06;4989083;28;20434;-74
2022/04/02 07:50:14;;;;;;;1.95;1.20;;;;;;;3.68;98.84;101432.22;4997686;28;20112;-76
2022/04/02 07:52:45;;;;;;;1.80;1.20;;;;;;;4.01;98.17;101450.72;4964077;28;20034;-75
2022/04/02 07:55:12;;;;;;;3.38;1.10;;;;;;;3.87;100.00;101445.00;4983367;28;20034;-74
2022/04/02 07:57:46;;;;;;;1.92;1.30;;;;;;;4.03;98.29;101445.22;4946525;28;20043;-75
2022/04/02 08:00:14;;;;;;;3.55;1.30;;;;;;;4.32;95.90;101446.69;4980265;28;20113;-74
2022/04/02 08:02:43;;;;;;;8.48;1.88;;;;;;;4.55;94.34;101458.38;4996654;28;20490;-74
2022/04/02 08:05:20;;;;;;;4.72;1.65;;;;;;;4.29;97.57;101437.81;4995802;28;20082;-74
2022/04/02 08:07:52;;;;;;;2.67;1.10;;;;;;;4.23;92.71;101441.66;4980549;28;20035;-74
2022/04/02 08:10:20;;;;;;;5.03;1.42;;;;;;;4.19;99.47;101465.31;4980176;28;20117;-75
2022/04/02 08:12:46;;;;;;;6.20;1.80;;;;;;;4.15;97.98;101451.94;4979198;28;20036;-75
2022/04/02 08:15:17;;;;;;;4.68;1.50;;;;;;;4.48;98.78;101451.47;4959485;28;20402;-75
2022/04/02 08:17:45;;;;;;;3.10;1.38;;;;;;;4.56;98.37;101476.41;4952210;28;20039;-75
2022/04/02 08:20:14;;;;;;;2.92;1.75;;;;;;;4.39;95.88;101467.19;4951136;28;20085;-75
2022/04/02 08:22:43;;;;;;;2.85;1.60;;;;;;;4.59;96.06;101469.00;4991300;28;20063;-76
2022/04/02 08:25:09;;;;;;;2.33;1.55;;;;;;;4.84;91.29;101467.91;4979422;28;20090;-76
2022/04/02 08:28:07;;;;;;;6.90;1.75;;;;;;;5.04;94.76;101456.13;4980060;28;20085;-75
2022/04/02 08:30:35;;;;;;;2.72;1.85;;;;;;;4.61;100.00;101468.94;4956317;28;20055;-76
2022/04/02 08:33:30;;;;;;;2.63;1.75;;;;;;;5.04;99.72;101476.97;4949971;28;20122;-76
2022/04/02 08:36:31;;;;;;;3.38;1.98;;;;;;;5.03;93.69;101476.06;4976117;28;20030;-76
2022/04/02 08:39:03;;;;;;;5.55;1.67;;;;;;;5.13;97.65;101469.28;4986182;28;20041;-76
2022/04/02 08:41:44;;;;;;;2.97;1.80;;;;;;;5.00;96.04;101476.25;4974279;28;20035;-75
2022/04/02 08:44:38;;;;;;;3.55;1.77;;;;;;;4.73;96.50;101483.78;4971715;28;20043;-76
2022/04/02 08:47:12;;;;;;;4.07;1.58;;;;;;;4.75;94.55;101482.75;4949486;28;20035;-76
2022/04/02 08:49:56;;;;;;;4.00;1.70;;;;;;;5.14;94.38;101487.31;4978182;28;20045;-76
2022/04/02 08:52:29;;;;;;;2.08;1.50;;;;;;;4.91;92.72;101482.06;4956373;29;20031;-76
2022/04/02 08:55:14;;;;;;;2.35;1.40;;;;;;;5.55;86.01;101490.88;4940477;29;20130;-76
2022/04/02 08:58:10;;;;;;;2.20;1.25;;;;;;;5.21;87.72;101501.47;4960145;28;20051;-75
2022/04/02 09:00:42;;;;;;;2.00;1.30;;;;;;;5.94;87.16;101492.63;4954780;28;20107;-75
2022/04/02 09:03:46;;;;;;;3.10;1.67;;;;;;;5.89;90.42;101492.84;4975221;28;20085;-75
2022/04/02 09:06:31;;;;;;;4.28;1.80;;;;;;;6.37;82.75;101490.50;4943313;28;20312;-75
2022/04/02 09:09:06;;;;;;;2.60;1.70;;;;;;;5.60;92.43;101495.13;4956838;28;20031;-75
2022/04/02 09:11:59;;;;;;;4.32;1.85;;;;;;;6.19;85.98;101505.91;4959579;28;20173;-75
2022/04/02 09:14:51;;;;;;;3.28;1.70;;;;;;;6.43;87.64;101515.53;4974122;28;20109;-75
2022/04/02 09:17:54;;;;;;;6.75;2.00;;;;;;;5.82;88.61;101518.53;4961886;28;20046;-75
2022/04/02 09:20:46;;;;;;;3.17;1.70;;;;;;;5.39;85.09;101526.91;4969695;28;20027;-75
2022/04/02 09:23:34;;;;;;;4.00;1.48;;;;;;;5.14;83.84;101500.03;4975517;28;20292;-75
2022/04/02 09:26:15;;;;;;;8.00;2.03;;;;;;;6.09;78.11;101529.94;4961285;28;20426;-75
2022/04/02 09:28:44;;;;;;;7.45;2.17;;;;;;;6.30;79.26;101527.13;4979485;28;20034;-75
2022/04/02 09:31:28;;;;;;;4.90;1.67;;;;;;;5.64;87.05;101542.94;4959210;28;20483;-75
2022/04/02 09:34:24;;;;;;;4.20;1.92;;;;;;;5.40;85.79;101533.25;4990876;28;20030;-74
2022/04/02 09:37:08;;;;;;;2.60;1.50;;;;;;;5.45;80.92;101532.06;4996624;28;20065;-75
2022/04/02 09:39:44;;;;;;;3.17;1.17;;;;;;;6.10;74.30;101542.59;4978515;28;20493;-75
2022/04/02 09:42:19;;;;;;;3.60;1.40;;;;;;;5.13;80.31;101544.38;4973679;28;20065;-75
2022/04/02 09:44:57;;;;;;;2.05;1.40;;;;;;;5.22;80.32;101535.84;4958120;28;21221;-75
2022/04/02 09:47:36;;;;;;;4.45;1.75;;;;;;;5.30;84.50;101533.66;4962081;28;20045;-75
2022/04/02 09:50:09;;;;;;;6.00;1.85;;;;;;;5.63;77.34;101521.28;4950361;28;20042;-75
2022/04/02 09:52:43;;;;;;;3.35;2.00;;;;;;;5.12;85.82;101532.66;4958267;28;20538;-75
2022/04/02 09:55:21;;;;;;;4.78;2.40;;;;;;;5.16;83.82;101530.69;4980390;28;20031;-76
2022/04/02 09:58:32;;;;;;;4.93;1.85;;;;;;;5.52;84.76;101552.53;4999568;28;20057;-75
2022/04/02 10:01:03;;;;;;;2.53;1.90;;;;;;;4.60;85.74;101527.72;4977837;28;20030;-77
2022/04/02 10:03:57;;;;;;;3.78;2.20;;;;;;;5.15;84.97;101542.50;4977108;28;20026;-74
2022/04/02 10:06:24;;;;;;;4.00;1.70;;;;;;;5.29;84.85;101553.59;4959714;28;20050;-74
2022/04/02 10:09:04;;;;;;;4.28;1.90;;;;;;;5.62;86.45;101550.25;4980637;28;20093;-75
2022/04/02 10:11:31;;;;;;;5.15;2.10;;;;;;;6.12;86.44;101537.09;4982636;28;20065;-74
2022/04/02 10:14:01;;;;;;;5.40;2.28;;;;;;;6.41;82.18;101522.00;4990258;28;20031;-76
2022/04/02 10:16:30;;;;;;;3.38;1.88;;;;;;;6.70;78.05;101536.81;4963437;28;20069;-76
2022/04/02 10:18:59;;;;;;;2.58;1.83;;;;;;;6.56;79.53;101518.50;4948188;28;20080;-75
2022/04/02 10:21:27;;;;;;;5.13;2.28;;;;;;;6.82;78.60;101516.25;4958850;28;20046;-75
2022/04/02 10:24:21;;;;;;;4.38;2.03;;;;;;;7.87;74.64;101533.22;4980898;28;20023;-75
2022/04/02 10:26:51;;;;;;;8.60;3.20;;;;;;;7.26;84.59;101531.16;4978413;28;20042;-75
2022/04/02 10:29:30;;;;;;;6.63;3.15;;;;;;;6.37;86.16;101515.84;4968907;28;20043;-76
2022/04/02 10:32:38;;;;;;;7.03;2.78;;;;;;;6.96;83.18;101520.97;4954535;28;20027;-76
2022/04/02 10:35:08;;;;;;;4.40;2.42;;;;;;;7.52;78.30;101510.66;4969671;28;20058;-76
2022/04/02 10:38:01;;;;;;;2.83;1.60;;;;;;;7.46;76.80;101522.78;4970989;28;20494;-76
2022/04/02 10:40:29;;;;;;;6.82;1.92;;;;;;;7.16;78.06;101503.56;4978577;28;20089;-76
2022/04/02 10:43:06;;;;;;;2.05;1.60;;;;;;;7.25;76.15;101526.69;4977294;28;20027;-76
2022/04/02 10:45:35;;;;;;;3.60;1.80;;;;;;;8.02;70.58;101525.13;4960698;28;20035;-76
2022/04/02 10:48:10;;;;;;;3.85;1.75;;;;;;;6.88;74.92;101525.94;4950785;29;20038;-76
2022/04/02 10:50:38;;;;;;;3.42;2.30;;;;;;;6.45;75.27;101499.13;4967893;28;20035;-76
2022/04/02 10:53:04;;;;;;;2.97;1.55;;;;;;;6.70;74.63;101525.94;4979796;28;20034;-77
2022/04/02 10:55:32;;;;;;;2.15;1.77;;;;;;;6.89;75.75;101505.94;4979479;28;20058;-76
2022/04/02 10:57:59;;;;;;;5.35;2.80;;;;;;;6.29;74.95;101493.59;4966026;28;20086;-76
2022/04/02 11:00:29;;;;;;;4.97;1.98;;;;;;;6.90;70.55;101488.63;4979166;28;20062;-76
2022/04/02 11:03:06;;;;;;;3.00;2.13;;;;;;;6.08;78.70;101520.00;4946077;28;20050;-76
2022/04/02 11:05:36;;;;;;;6.13;3.08;;;;;;;5.72;88.93;101515.38;4961996;28;20045;-75
2022/04/02 11:08:10;;;;;;;4.43;3.30;;;;;;;5.34;91.23;101523.53;4980649;28;20037;-75
2022/04/02 11:10:36;;;;;;;5.22;3.08;;;;;;;5.24;93.21;101504.06;4975809;28;20035;-75
2022/04/02 11:13:04;;;;;;;6.13;3.50;;;;;;;5.25;95.29;101518.53;4963320;28;20111;-75
2022/04/02 11:15:39;;;;;;;7.63;3.63;;;;;;;5.05;92.30;101501.34;4963251;28;20475;-76
2022/04/02 11:18:04;;;;;;;13.73;3.25;;;;;;;5.26;93.85;101523.00;4959583;28;20125;-75
2022/04/02 11:20:32;;;;;;;5.90;3.22;;;;;;;4.97;91.75;101487.22;4975158;28;20039;-75
2022/04/02 11:23:34;;;;;;;8.00;3.28;;;;;;;5.22;93.26;101518.69;4959040;29;20047;-75
2022/04/02 11:26:03;;;;;;;3.90;2.70;;;;;;;5.37;87.60;101517.09;4957572;28;20041;-75
2022/04/02 11:28:41;;;;;;;9.23;3.38;;;;;;;5.39;91.98;101497.03;4956876;28;20089;-75
2022/04/02 11:31:08;;;;;;;6.78;3.00;;;;;;;5.98;89.46;101496.97;4964247;28;20042;-76
2022/04/02 11:33:51;;;;;;;10.10;3.33;;;;;;;5.80;86.98;101505.03;4956584;28;20405;-76
2022/04/02 11:36:21;;;;;;;4.53;2.63;;;;;;;5.73;86.90;101500.00;4965758;28;20393;-76
2022/04/02 11:38:57;;;;;;;4.40;2.70;;;;;;;5.86;82.81;101521.03;4978367;28;20289;-75
2022/04/02 11:41:29;;;;;;;6.95;3.00;;;;;;;5.70;87.86;101514.59;4955731;28;20038;-75
2022/04/02 11:44:08;;;;;;;4.20;2.40;;;;;;;5.41;84.27;101529.56;4964489;28;20061;-75
2022/04/02 11:47:05;;;;;;;5.18;2.35;;;;;;;5.55;81.25;101540.66;4966457;28;20509;-76